Eastsound, WA

8:07 PM PST on December 19, 2014 (GMT -0800)
Whidbey Island Naval Air Station | Change Station
CLOSE
Current Station
Airport
Location: Whidbey Island,
Elevation: 46 ft
Nearby Weather Stations
Active Advisory: High Wind Warning Active Notice: Record Report

Elev 46 ft 48.35 °N, 122.66 °W | Updated 11 minutes ago

Clear
Clear
51 °F
Feels Like 51 °F
N
23
Wind Variable Wind from SSE
Gusts 31 mph

Today
High -- | Low -- °F
--% Chance of Precip.
Yesterday
High -- | Low -- °F
Precip. -- in
8:00 AM 4:17 PM
Waning Crescent, 5% visible
Pressure 29.89 in
Visibility 10.0 miles
Clouds Few 1800 ft
Scattered Clouds 4000 ft
Mostly Cloudy 12000 ft
Overcast 17000 ft
Dew Point 41 °F
Humidity 68%
Rainfall 0.01 in
Snow Depth Not available.
UV 0 out of 12
Pollen .40 out of 12
Air Quality Not available.
Flu Activity Not available.
METAR KNUW 200356Z 15020G27KT 10SM FEW018 SCT040 BKN120 OVC170 11/05 A2988 RMK AO2 PK WND 15027/0353 SLP122 T01060050 VISNO E $

More Conditions Fewer Conditions

Pressure 29.89 in
Visibility 10.0 miles
Clouds Few 1800 ft
Scattered Clouds 4000 ft
Mostly Cloudy 12000 ft
Overcast 17000 ft
Dew Point 41 °F
Humidity 68%
Rainfall 0.01 in
Snow Depth Not available.
UV 0 out of 12
Pollen .40 out of 12
Air Quality Not available.
Flu Activity Not available.
METAR KNUW 200356Z 15020G27KT 10SM FEW018 SCT040 BKN120 OVC170 11/05 A2988 RMK AO2 PK WND 15027/0353 SLP122 T01060050 VISNO E $

More Conditions Fewer Conditions

10-Day Weather Forecast

Almanac

Astronomy

Dec. 19, 2014 Rise Set
Actual Time
Civil Twilight
Nautical Twilight
Astronomical Twilight
Moon
Length of Visible Light
Length of Day
Tomorrow will be .
, % of the Moon is Illuminated

Today's Extremes

State Highs State Lows

Community

WunderPhotos

Upload Photos

1,779,127 photos uploaded!

WunderBlogs® & News

Nearby

Air Quality

  Air Quality AQ Index Pollutant
Not available.

Snow Depth

Station Depth Elevation

Earthquake Activity

City Distance Mag. Time & Date
Minimum magnitude displayed is 2.5.

Coastal Water Temperatures

Place Temperature

Nearby Weather Stations